sensor_id;sensor_type;location;lat;lon;timestamp;P1;durP1;ratioP1;P2;durP2;ratioP2
21816;SDS011;13247;47.504;7.382;2023-08-20T00:00:57;10.10;;;6.15;;
21816;SDS011;13247;47.504;7.382;2023-08-20T00:03:43;8.30;;;5.22;;
21816;SDS011;13247;47.504;7.382;2023-08-20T00:06:30;9.40;;;6.00;;
21816;SDS011;13247;47.504;7.382;2023-08-20T00:09:14;8.88;;;6.10;;
21816;SDS011;13247;47.504;7.382;2023-08-20T00:12:00;11.38;;;5.53;;
21816;SDS011;13247;47.504;7.382;2023-08-20T00:14:53;8.68;;;5.45;;
21816;SDS011;13247;47.504;7.382;2023-08-20T00:17:40;12.20;;;5.20;;
21816;SDS011;13247;47.504;7.382;2023-08-20T00:20:26;6.57;;;4.72;;
21816;SDS011;13247;47.504;7.382;2023-08-20T00:23:12;7.07;;;4.95;;
21816;SDS011;13247;47.504;7.382;2023-08-20T00:25:58;8.70;;;5.80;;
21816;SDS011;13247;47.504;7.382;2023-08-20T00:28:43;8.82;;;6.22;;
21816;SDS011;13247;47.504;7.382;2023-08-20T00:31:28;9.93;;;6.30;;
21816;SDS011;13247;47.504;7.382;2023-08-20T00:34:13;9.85;;;5.82;;
21816;SDS011;13247;47.504;7.382;2023-08-20T00:36:58;9.98;;;6.47;;
21816;SDS011;13247;47.504;7.382;2023-08-20T00:39:43;13.57;;;6.40;;
21816;SDS011;13247;47.504;7.382;2023-08-20T00:42:27;7.65;;;5.88;;
21816;SDS011;13247;47.504;7.382;2023-08-20T00:45:13;9.38;;;6.40;;
21816;SDS011;13247;47.504;7.382;2023-08-20T00:48:00;13.48;;;6.28;;
21816;SDS011;13247;47.504;7.382;2023-08-20T00:50:45;9.88;;;6.20;;
21816;SDS011;13247;47.504;7.382;2023-08-20T00:53:29;8.23;;;5.90;;
21816;SDS011;13247;47.504;7.382;2023-08-20T00:56:15;8.30;;;6.53;;
21816;SDS011;13247;47.504;7.382;2023-08-20T00:58:59;13.48;;;6.40;;
21816;SDS011;13247;47.504;7.382;2023-08-20T01:01:44;9.15;;;5.50;;
21816;SDS011;13247;47.504;7.382;2023-08-20T01:04:29;8.30;;;5.63;;
21816;SDS011;13247;47.504;7.382;2023-08-20T01:07:27;9.48;;;6.00;;
21816;SDS011;13247;47.504;7.382;2023-08-20T01:10:39;10.07;;;5.50;;
21816;SDS011;13247;47.504;7.382;2023-08-20T01:13:34;9.30;;;6.05;;
21816;SDS011;13247;47.504;7.382;2023-08-20T01:16:19;6.65;;;5.05;;
21816;SDS011;13247;47.504;7.382;2023-08-20T01:19:03;7.43;;;5.55;;
21816;SDS011;13247;47.504;7.382;2023-08-20T01:22:14;9.80;;;6.25;;
21816;SDS011;13247;47.504;7.382;2023-08-20T01:28:29;8.52;;;5.72;;
21816;SDS011;13247;47.504;7.382;2023-08-20T01:31:14;8.40;;;5.13;;
21816;SDS011;13247;47.504;7.382;2023-08-20T01:34:01;8.63;;;5.55;;
21816;SDS011;13247;47.504;7.382;2023-08-20T01:36:47;6.95;;;5.35;;
21816;SDS011;13247;47.504;7.382;2023-08-20T01:39:31;7.43;;;5.60;;
21816;SDS011;13247;47.504;7.382;2023-08-20T01:42:17;8.35;;;5.53;;
21816;SDS011;13247;47.504;7.382;2023-08-20T01:45:03;7.72;;;6.03;;
21816;SDS011;13247;47.504;7.382;2023-08-20T01:47:49;9.23;;;6.00;;
21816;SDS011;13247;47.504;7.382;2023-08-20T01:50:34;8.40;;;6.10;;
21816;SDS011;13247;47.504;7.382;2023-08-20T01:53:19;10.52;;;5.47;;
21816;SDS011;13247;47.504;7.382;2023-08-20T01:56:04;9.40;;;5.88;;
21816;SDS011;13247;47.504;7.382;2023-08-20T01:58:54;7.18;;;5.85;;
21816;SDS011;13247;47.504;7.382;2023-08-20T02:01:38;11.57;;;5.45;;
21816;SDS011;13247;47.504;7.382;2023-08-20T02:04:23;11.63;;;6.65;;
21816;SDS011;13247;47.504;7.382;2023-08-20T02:07:07;9.60;;;6.22;;
21816;SDS011;13247;47.504;7.382;2023-08-20T02:09:52;7.97;;;5.82;;
21816;SDS011;13247;47.504;7.382;2023-08-20T02:12:36;8.98;;;5.85;;
21816;SDS011;13247;47.504;7.382;2023-08-20T02:15:21;9.73;;;5.80;;
21816;SDS011;13247;47.504;7.382;2023-08-20T02:18:06;6.80;;;5.30;;
21816;SDS011;13247;47.504;7.382;2023-08-20T02:20:50;8.18;;;5.75;;
21816;SDS011;13247;47.504;7.382;2023-08-20T02:23:35;10.68;;;6.00;;
21816;SDS011;13247;47.504;7.382;2023-08-20T02:26:20;6.40;;;5.07;;
21816;SDS011;13247;47.504;7.382;2023-08-20T02:29:05;11.32;;;5.18;;
21816;SDS011;13247;47.504;7.382;2023-08-20T02:31:49;6.43;;;5.40;;
21816;SDS011;13247;47.504;7.382;2023-08-20T02:34:34;8.88;;;5.78;;
21816;SDS011;13247;47.504;7.382;2023-08-20T02:37:18;8.65;;;5.47;;
21816;SDS011;13247;47.504;7.382;2023-08-20T02:40:03;7.55;;;5.25;;
21816;SDS011;13247;47.504;7.382;2023-08-20T02:42:48;6.90;;;5.57;;
21816;SDS011;13247;47.504;7.382;2023-08-20T02:45:33;6.85;;;5.22;;
21816;SDS011;13247;47.504;7.382;2023-08-20T02:48:23;7.07;;;5.07;;
21816;SDS011;13247;47.504;7.382;2023-08-20T02:51:11;12.20;;;6.10;;
21816;SDS011;13247;47.504;7.382;2023-08-20T02:53:56;6.22;;;5.60;;
21816;SDS011;13247;47.504;7.382;2023-08-20T02:56:41;9.02;;;5.72;;
21816;SDS011;13247;47.504;7.382;2023-08-20T02:59:25;6.63;;;5.72;;
21816;SDS011;13247;47.504;7.382;2023-08-20T03:02:10;7.15;;;5.53;;
21816;SDS011;13247;47.504;7.382;2023-08-20T03:04:55;7.25;;;5.30;;
21816;SDS011;13247;47.504;7.382;2023-08-20T03:07:40;6.25;;;5.00;;
21816;SDS011;13247;47.504;7.382;2023-08-20T03:10:25;10.32;;;5.22;;
21816;SDS011;13247;47.504;7.382;2023-08-20T03:13:11;7.05;;;5.43;;
21816;SDS011;13247;47.504;7.382;2023-08-20T03:15:55;6.60;;;5.00;;
21816;SDS011;13247;47.504;7.382;2023-08-20T03:18:40;8.25;;;6.03;;
21816;SDS011;13247;47.504;7.382;2023-08-20T03:21:24;7.43;;;4.97;;
21816;SDS011;13247;47.504;7.382;2023-08-20T03:24:09;9.45;;;6.25;;
21816;SDS011;13247;47.504;7.382;2023-08-20T03:26:53;8.77;;;5.82;;
21816;SDS011;13247;47.504;7.382;2023-08-20T03:29:38;7.10;;;5.40;;
21816;SDS011;13247;47.504;7.382;2023-08-20T03:32:23;7.53;;;5.22;;
21816;SDS011;13247;47.504;7.382;2023-08-20T03:35:08;9.82;;;6.30;;
21816;SDS011;13247;47.504;7.382;2023-08-20T03:37:53;13.18;;;7.47;;
21816;SDS011;13247;47.504;7.382;2023-08-20T03:40:38;9.10;;;6.90;;
21816;SDS011;13247;47.504;7.382;2023-08-20T03:43:23;10.20;;;7.20;;
21816;SDS011;13247;47.504;7.382;2023-08-20T03:46:07;9.05;;;5.75;;
21816;SDS011;13247;47.504;7.382;2023-08-20T03:48:52;8.65;;;5.95;;
21816;SDS011;13247;47.504;7.382;2023-08-20T03:51:37;8.73;;;6.55;;
21816;SDS011;13247;47.504;7.382;2023-08-20T03:54:21;8.25;;;6.35;;
21816;SDS011;13247;47.504;7.382;2023-08-20T03:57:06;8.75;;;5.80;;
21816;SDS011;13247;47.504;7.382;2023-08-20T03:59:50;10.85;;;6.30;;
21816;SDS011;13247;47.504;7.382;2023-08-20T04:02:35;11.38;;;6.43;;
21816;SDS011;13247;47.504;7.382;2023-08-20T04:05:19;13.35;;;6.82;;
21816;SDS011;13247;47.504;7.382;2023-08-20T04:08:04;8.30;;;5.97;;
21816;SDS011;13247;47.504;7.382;2023-08-20T04:10:50;10.65;;;6.20;;
21816;SDS011;13247;47.504;7.382;2023-08-20T04:13:35;12.68;;;6.50;;
21816;SDS011;13247;47.504;7.382;2023-08-20T04:16:19;15.05;;;7.20;;
21816;SDS011;13247;47.504;7.382;2023-08-20T04:19:04;11.20;;;7.18;;
21816;SDS011;13247;47.504;7.382;2023-08-20T04:21:48;8.50;;;6.22;;
21816;SDS011;13247;47.504;7.382;2023-08-20T04:24:34;9.40;;;6.18;;
21816;SDS011;13247;47.504;7.382;2023-08-20T04:27:19;13.13;;;6.95;;
21816;SDS011;13247;47.504;7.382;2023-08-20T04:30:04;9.77;;;5.82;;
21816;SDS011;13247;47.504;7.382;2023-08-20T04:32:49;9.15;;;5.93;;
21816;SDS011;13247;47.504;7.382;2023-08-20T04:35:34;10.15;;;6.35;;
21816;SDS011;13247;47.504;7.382;2023-08-20T04:38:19;13.55;;;6.13;;
21816;SDS011;13247;47.504;7.382;2023-08-20T04:41:03;10.63;;;6.07;;
21816;SDS011;13247;47.504;7.382;2023-08-20T04:43:48;10.20;;;7.05;;
21816;SDS011;13247;47.504;7.382;2023-08-20T04:46:32;11.15;;;7.63;;
21816;SDS011;13247;47.504;7.382;2023-08-20T04:49:17;15.52;;;7.88;;
21816;SDS011;13247;47.504;7.382;2023-08-20T04:52:01;13.27;;;7.03;;
21816;SDS011;13247;47.504;7.382;2023-08-20T04:54:47;7.55;;;6.18;;
21816;SDS011;13247;47.504;7.382;2023-08-20T04:57:31;14.60;;;6.28;;
21816;SDS011;13247;47.504;7.382;2023-08-20T05:00:16;9.15;;;6.93;;
21816;SDS011;13247;47.504;7.382;2023-08-20T05:03:01;12.05;;;6.45;;
21816;SDS011;13247;47.504;7.382;2023-08-20T05:05:49;10.05;;;6.25;;
21816;SDS011;13247;47.504;7.382;2023-08-20T05:08:34;10.13;;;6.35;;
21816;SDS011;13247;47.504;7.382;2023-08-20T05:11:19;12.63;;;7.22;;
21816;SDS011;13247;47.504;7.382;2023-08-20T05:14:03;9.48;;;6.78;;
21816;SDS011;13247;47.504;7.382;2023-08-20T05:16:48;8.98;;;6.60;;
21816;SDS011;13247;47.504;7.382;2023-08-20T05:19:32;10.02;;;6.13;;
21816;SDS011;13247;47.504;7.382;2023-08-20T05:22:17;8.45;;;6.72;;
21816;SDS011;13247;47.504;7.382;2023-08-20T05:25:02;8.98;;;6.65;;
21816;SDS011;13247;47.504;7.382;2023-08-20T05:27:47;12.25;;;6.22;;
21816;SDS011;13247;47.504;7.382;2023-08-20T05:30:31;10.68;;;6.68;;
21816;SDS011;13247;47.504;7.382;2023-08-20T05:33:16;8.57;;;6.53;;
21816;SDS011;13247;47.504;7.382;2023-08-20T05:36:01;11.23;;;6.40;;
21816;SDS011;13247;47.504;7.382;2023-08-20T05:38:45;10.68;;;6.70;;
21816;SDS011;13247;47.504;7.382;2023-08-20T05:41:30;9.85;;;6.85;;
21816;SDS011;13247;47.504;7.382;2023-08-20T05:44:14;8.65;;;6.70;;
21816;SDS011;13247;47.504;7.382;2023-08-20T05:46:59;9.57;;;6.88;;
21816;SDS011;13247;47.504;7.382;2023-08-20T05:49:44;9.57;;;6.30;;
21816;SDS011;13247;47.504;7.382;2023-08-20T05:52:29;14.63;;;7.20;;
21816;SDS011;13247;47.504;7.382;2023-08-20T05:55:14;9.77;;;6.85;;
21816;SDS011;13247;47.504;7.382;2023-08-20T05:57:59;8.70;;;7.13;;
21816;SDS011;13247;47.504;7.382;2023-08-20T06:00:43;7.22;;;6.03;;
21816;SDS011;13247;47.504;7.382;2023-08-20T06:03:28;8.43;;;6.63;;
21816;SDS011;13247;47.504;7.382;2023-08-20T06:06:13;9.55;;;6.43;;
21816;SDS011;13247;47.504;7.382;2023-08-20T06:08:58;11.35;;;7.03;;
21816;SDS011;13247;47.504;7.382;2023-08-20T06:11:42;11.68;;;7.82;;
21816;SDS011;13247;47.504;7.382;2023-08-20T06:14:27;11.23;;;6.60;;
21816;SDS011;13247;47.504;7.382;2023-08-20T06:17:12;12.73;;;7.50;;
21816;SDS011;13247;47.504;7.382;2023-08-20T06:19:56;12.07;;;7.07;;
21816;SDS011;13247;47.504;7.382;2023-08-20T06:22:41;10.88;;;6.53;;
21816;SDS011;13247;47.504;7.382;2023-08-20T06:25:25;10.05;;;6.75;;
21816;SDS011;13247;47.504;7.382;2023-08-20T06:28:11;12.50;;;7.07;;
21816;SDS011;13247;47.504;7.382;2023-08-20T06:30:56;12.40;;;7.03;;
21816;SDS011;13247;47.504;7.382;2023-08-20T06:33:41;9.70;;;6.97;;
21816;SDS011;13247;47.504;7.382;2023-08-20T06:36:25;14.02;;;8.10;;
21816;SDS011;13247;47.504;7.382;2023-08-20T06:39:10;8.65;;;7.00;;
21816;SDS011;13247;47.504;7.382;2023-08-20T06:41:55;15.25;;;7.57;;
21816;SDS011;13247;47.504;7.382;2023-08-20T06:44:39;14.07;;;7.95;;
21816;SDS011;13247;47.504;7.382;2023-08-20T06:47:24;11.43;;;8.63;;
21816;SDS011;13247;47.504;7.382;2023-08-20T06:50:09;12.13;;;8.00;;
21816;SDS011;13247;47.504;7.382;2023-08-20T06:52:54;15.32;;;8.80;;
21816;SDS011;13247;47.504;7.382;2023-08-20T06:55:38;12.13;;;8.95;;
21816;SDS011;13247;47.504;7.382;2023-08-20T06:58:23;12.48;;;8.68;;
21816;SDS011;13247;47.504;7.382;2023-08-20T07:01:08;14.13;;;8.38;;
21816;SDS011;13247;47.504;7.382;2023-08-20T07:03:53;13.43;;;8.10;;
21816;SDS011;13247;47.504;7.382;2023-08-20T07:06:38;13.00;;;9.10;;
21816;SDS011;13247;47.504;7.382;2023-08-20T07:09:23;15.38;;;8.93;;
21816;SDS011;13247;47.504;7.382;2023-08-20T07:12:07;12.13;;;8.15;;
21816;SDS011;13247;47.504;7.382;2023-08-20T07:14:52;12.05;;;9.38;;
21816;SDS011;13247;47.504;7.382;2023-08-20T07:17:36;12.23;;;8.70;;
21816;SDS011;13247;47.504;7.382;2023-08-20T07:20:22;11.68;;;7.60;;
21816;SDS011;13247;47.504;7.382;2023-08-20T07:23:06;12.63;;;8.93;;
21816;SDS011;13247;47.504;7.382;2023-08-20T07:26:03;11.43;;;8.38;;
21816;SDS011;13247;47.504;7.382;2023-08-20T07:28:49;12.02;;;7.88;;
21816;SDS011;13247;47.504;7.382;2023-08-20T07:31:40;10.27;;;7.88;;
21816;SDS011;13247;47.504;7.382;2023-08-20T07:34:25;10.50;;;7.60;;
21816;SDS011;13247;47.504;7.382;2023-08-20T07:37:09;14.77;;;7.75;;
21816;SDS011;13247;47.504;7.382;2023-08-20T07:39:54;12.55;;;7.22;;
21816;SDS011;13247;47.504;7.382;2023-08-20T07:42:42;8.93;;;7.45;;
21816;SDS011;13247;47.504;7.382;2023-08-20T07:45:27;11.38;;;7.15;;
21816;SDS011;13247;47.504;7.382;2023-08-20T07:48:12;10.20;;;7.47;;
21816;SDS011;13247;47.504;7.382;2023-08-20T07:50:57;12.30;;;7.88;;
21816;SDS011;13247;47.504;7.382;2023-08-20T07:53:42;13.38;;;7.60;;
21816;SDS011;13247;47.504;7.382;2023-08-20T07:56:27;10.80;;;7.25;;
21816;SDS011;13247;47.504;7.382;2023-08-20T07:59:12;8.90;;;7.60;;
21816;SDS011;13247;47.504;7.382;2023-08-20T08:01:56;8.60;;;7.10;;
21816;SDS011;13247;47.504;7.382;2023-08-20T08:04:41;9.15;;;6.75;;
21816;SDS011;13247;47.504;7.382;2023-08-20T08:07:26;9.35;;;6.95;;
21816;SDS011;13247;47.504;7.382;2023-08-20T08:10:10;10.10;;;6.93;;
21816;SDS011;13247;47.504;7.382;2023-08-20T08:12:55;10.68;;;6.43;;
21816;SDS011;13247;47.504;7.382;2023-08-20T08:15:40;10.32;;;6.95;;
21816;SDS011;13247;47.504;7.382;2023-08-20T08:18:25;9.23;;;6.28;;
21816;SDS011;13247;47.504;7.382;2023-08-20T08:21:09;14.90;;;6.95;;
21816;SDS011;13247;47.504;7.382;2023-08-20T08:23:54;9.90;;;6.32;;
21816;SDS011;13247;47.504;7.382;2023-08-20T08:26:39;9.52;;;6.28;;
21816;SDS011;13247;47.504;7.382;2023-08-20T08:29:24;7.88;;;6.25;;
21816;SDS011;13247;47.504;7.382;2023-08-20T08:32:09;12.02;;;5.65;;
21816;SDS011;13247;47.504;7.382;2023-08-20T08:34:54;7.65;;;6.07;;
21816;SDS011;13247;47.504;7.382;2023-08-20T08:37:39;10.27;;;5.93;;
21816;SDS011;13247;47.504;7.382;2023-08-20T08:40:24;9.23;;;6.38;;
21816;SDS011;13247;47.504;7.382;2023-08-20T08:43:14;8.90;;;5.93;;
21816;SDS011;13247;47.504;7.382;2023-08-20T08:46:00;11.30;;;6.28;;
21816;SDS011;13247;47.504;7.382;2023-08-20T08:48:48;11.75;;;5.78;;
21816;SDS011;13247;47.504;7.382;2023-08-20T08:51:33;7.40;;;5.70;;
21816;SDS011;13247;47.504;7.382;2023-08-20T08:54:20;8.43;;;5.65;;
21816;SDS011;13247;47.504;7.382;2023-08-20T08:57:05;8.70;;;5.78;;
21816;SDS011;13247;47.504;7.382;2023-08-20T08:59:49;8.27;;;5.10;;
21816;SDS011;13247;47.504;7.382;2023-08-20T09:02:34;8.80;;;5.55;;
21816;SDS011;13247;47.504;7.382;2023-08-20T09:05:18;7.32;;;5.35;;
21816;SDS011;13247;47.504;7.382;2023-08-20T09:08:03;8.45;;;5.22;;
21816;SDS011;13247;47.504;7.382;2023-08-20T09:10:51;7.47;;;5.38;;
21816;SDS011;13247;47.504;7.382;2023-08-20T09:13:38;9.27;;;6.15;;
21816;SDS011;13247;47.504;7.382;2023-08-20T09:16:25;10.02;;;5.40;;
21816;SDS011;13247;47.504;7.382;2023-08-20T09:19:14;9.10;;;6.03;;
21816;SDS011;13247;47.504;7.382;2023-08-20T09:21:59;8.95;;;5.38;;
21816;SDS011;13247;47.504;7.382;2023-08-20T09:24:51;9.40;;;5.22;;
21816;SDS011;13247;47.504;7.382;2023-08-20T09:27:38;8.27;;;5.88;;
21816;SDS011;13247;47.504;7.382;2023-08-20T09:30:24;10.13;;;6.55;;
21816;SDS011;13247;47.504;7.382;2023-08-20T09:33:12;9.73;;;5.43;;
21816;SDS011;13247;47.504;7.382;2023-08-20T09:35:57;7.97;;;6.15;;
21816;SDS011;13247;47.504;7.382;2023-08-20T09:38:42;8.80;;;5.20;;
21816;SDS011;13247;47.504;7.382;2023-08-20T09:41:27;6.68;;;5.15;;
21816;SDS011;13247;47.504;7.382;2023-08-20T09:44:12;7.70;;;5.20;;
21816;SDS011;13247;47.504;7.382;2023-08-20T09:46:59;7.70;;;6.15;;
21816;SDS011;13247;47.504;7.382;2023-08-20T09:49:46;9.15;;;6.07;;
21816;SDS011;13247;47.504;7.382;2023-08-20T09:52:34;11.70;;;5.95;;
21816;SDS011;13247;47.504;7.382;2023-08-20T09:55:32;7.70;;;5.45;;
21816;SDS011;13247;47.504;7.382;2023-08-20T09:58:20;8.18;;;5.07;;
21816;SDS011;13247;47.504;7.382;2023-08-20T10:01:09;10.18;;;5.72;;
21816;SDS011;13247;47.504;7.382;2023-08-20T10:03:54;7.93;;;5.30;;
21816;SDS011;13247;47.504;7.382;2023-08-20T10:06:40;12.75;;;5.85;;
21816;SDS011;13247;47.504;7.382;2023-08-20T10:09:25;8.50;;;6.30;;
21816;SDS011;13247;47.504;7.382;2023-08-20T10:12:10;8.27;;;5.63;;
21816;SDS011;13247;47.504;7.382;2023-08-20T10:14:57;7.20;;;5.35;;
21816;SDS011;13247;47.504;7.382;2023-08-20T10:17:44;9.80;;;5.07;;
21816;SDS011;13247;47.504;7.382;2023-08-20T10:20:30;14.98;;;5.80;;
21816;SDS011;13247;47.504;7.382;2023-08-20T10:23:15;6.70;;;4.68;;
21816;SDS011;13247;47.504;7.382;2023-08-20T10:26:07;8.40;;;5.22;;
21816;SDS011;13247;47.504;7.382;2023-08-20T10:29:26;6.45;;;5.40;;
21816;SDS011;13247;47.504;7.382;2023-08-20T10:35:01;6.72;;;5.65;;
21816;SDS011;13247;47.504;7.382;2023-08-20T10:38:04;7.22;;;5.30;;
21816;SDS011;13247;47.504;7.382;2023-08-20T10:40:53;11.07;;;5.73;;
21816;SDS011;13247;47.504;7.382;2023-08-20T10:43:46;9.55;;;5.07;;
21816;SDS011;13247;47.504;7.382;2023-08-20T10:46:32;8.57;;;5.53;;
21816;SDS011;13247;47.504;7.382;2023-08-20T10:49:32;10.77;;;5.60;;
21816;SDS011;13247;47.504;7.382;2023-08-20T10:52:18;9.35;;;6.00;;
21816;SDS011;13247;47.504;7.382;2023-08-20T10:55:03;7.75;;;5.70;;
21816;SDS011;13247;47.504;7.382;2023-08-20T10:57:57;16.02;;;6.30;;
21816;SDS011;13247;47.504;7.382;2023-08-20T11:00:43;7.07;;;5.10;;
21816;SDS011;13247;47.504;7.382;2023-08-20T11:03:27;10.93;;;5.55;;
21816;SDS011;13247;47.504;7.382;2023-08-20T11:06:12;7.32;;;5.63;;
21816;SDS011;13247;47.504;7.382;2023-08-20T11:08:58;10.75;;;5.40;;
21816;SDS011;13247;47.504;7.382;2023-08-20T11:11:43;7.45;;;5.15;;
21816;SDS011;13247;47.504;7.382;2023-08-20T11:14:27;7.60;;;5.00;;
21816;SDS011;13247;47.504;7.382;2023-08-20T11:17:12;9.38;;;5.43;;
21816;SDS011;13247;47.504;7.382;2023-08-20T11:19:57;7.40;;;5.07;;
21816;SDS011;13247;47.504;7.382;2023-08-20T11:22:41;6.35;;;4.38;;
21816;SDS011;13247;47.504;7.382;2023-08-20T11:25:27;6.00;;;4.43;;
21816;SDS011;13247;47.504;7.382;2023-08-20T11:28:12;7.07;;;5.60;;
21816;SDS011;13247;47.504;7.382;2023-08-20T11:30:57;12.30;;;6.22;;
21816;SDS011;13247;47.504;7.382;2023-08-20T11:33:42;8.73;;;5.20;;
21816;SDS011;13247;47.504;7.382;2023-08-20T11:36:26;7.45;;;5.65;;
21816;SDS011;13247;47.504;7.382;2023-08-20T11:39:11;6.90;;;5.30;;
21816;SDS011;13247;47.504;7.382;2023-08-20T11:41:55;6.18;;;4.97;;
21816;SDS011;13247;47.504;7.382;2023-08-20T11:44:50;15.60;;;5.47;;
21816;SDS011;13247;47.504;7.382;2023-08-20T11:47:39;6.90;;;5.20;;
21816;SDS011;13247;47.504;7.382;2023-08-20T11:50:24;9.05;;;5.53;;
21816;SDS011;13247;47.504;7.382;2023-08-20T11:53:10;7.03;;;5.72;;
21816;SDS011;13247;47.504;7.382;2023-08-20T11:55:55;14.70;;;5.35;;
21816;SDS011;13247;47.504;7.382;2023-08-20T11:58:39;8.48;;;4.68;;
21816;SDS011;13247;47.504;7.382;2023-08-20T12:01:24;8.88;;;5.10;;
21816;SDS011;13247;47.504;7.382;2023-08-20T12:04:09;7.55;;;5.03;;
21816;SDS011;13247;47.504;7.382;2023-08-20T12:07:13;6.85;;;5.25;;
21816;SDS011;13247;47.504;7.382;2023-08-20T12:09:58;8.82;;;4.82;;
21816;SDS011;13247;47.504;7.382;2023-08-20T12:13:02;6.55;;;5.28;;
21816;SDS011;13247;47.504;7.382;2023-08-20T12:15:47;7.50;;;5.32;;
21816;SDS011;13247;47.504;7.382;2023-08-20T12:18:32;8.07;;;5.05;;
21816;SDS011;13247;47.504;7.382;2023-08-20T12:21:17;12.85;;;5.35;;
21816;SDS011;13247;47.504;7.382;2023-08-20T12:24:01;8.10;;;5.10;;
21816;SDS011;13247;47.504;7.382;2023-08-20T12:26:47;6.88;;;4.55;;
21816;SDS011;13247;47.504;7.382;2023-08-20T12:29:33;7.10;;;4.68;;
21816;SDS011;13247;47.504;7.382;2023-08-20T12:32:17;5.68;;;4.30;;
21816;SDS011;13247;47.504;7.382;2023-08-20T12:35:01;6.38;;;4.95;;
21816;SDS011;13247;47.504;7.382;2023-08-20T12:37:47;7.60;;;4.82;;
21816;SDS011;13247;47.504;7.382;2023-08-20T12:40:31;8.63;;;4.97;;
21816;SDS011;13247;47.504;7.382;2023-08-20T12:43:16;6.97;;;4.75;;
21816;SDS011;13247;47.504;7.382;2023-08-20T12:46:00;7.70;;;4.90;;
21816;SDS011;13247;47.504;7.382;2023-08-20T12:48:47;7.13;;;4.50;;
21816;SDS011;13247;47.504;7.382;2023-08-20T12:51:31;9.52;;;4.78;;
21816;SDS011;13247;47.504;7.382;2023-08-20T12:54:16;9.88;;;5.13;;
21816;SDS011;13247;47.504;7.382;2023-08-20T12:57:00;5.97;;;4.50;;
21816;SDS011;13247;47.504;7.382;2023-08-20T12:59:45;7.80;;;4.82;;
21816;SDS011;13247;47.504;7.382;2023-08-20T13:02:30;10.25;;;4.53;;
21816;SDS011;13247;47.504;7.382;2023-08-20T13:05:15;6.68;;;4.50;;
21816;SDS011;13247;47.504;7.382;2023-08-20T13:08:00;12.30;;;4.75;;
21816;SDS011;13247;47.504;7.382;2023-08-20T13:10:49;8.38;;;4.68;;
21816;SDS011;13247;47.504;7.382;2023-08-20T13:13:38;8.63;;;5.20;;
21816;SDS011;13247;47.504;7.382;2023-08-20T13:16:24;6.45;;;4.60;;
21816;SDS011;13247;47.504;7.382;2023-08-20T13:19:09;5.00;;;4.47;;
21816;SDS011;13247;47.504;7.382;2023-08-20T13:21:54;11.65;;;5.55;;
21816;SDS011;13247;47.504;7.382;2023-08-20T13:24:39;7.35;;;5.18;;
21816;SDS011;13247;47.504;7.382;2023-08-20T13:27:23;7.22;;;5.13;;
21816;SDS011;13247;47.504;7.382;2023-08-20T13:30:08;10.32;;;4.88;;
21816;SDS011;13247;47.504;7.382;2023-08-20T13:32:54;8.43;;;5.10;;
21816;SDS011;13247;47.504;7.382;2023-08-20T13:35:40;14.20;;;5.60;;
21816;SDS011;13247;47.504;7.382;2023-08-20T13:38:25;7.65;;;5.18;;
21816;SDS011;13247;47.504;7.382;2023-08-20T13:41:09;6.13;;;4.90;;
21816;SDS011;13247;47.504;7.382;2023-08-20T13:43:54;6.63;;;4.80;;
21816;SDS011;13247;47.504;7.382;2023-08-20T13:46:38;6.95;;;4.22;;
21816;SDS011;13247;47.504;7.382;2023-08-20T13:49:23;8.27;;;4.50;;
21816;SDS011;13247;47.504;7.382;2023-08-20T13:52:09;6.03;;;4.95;;
21816;SDS011;13247;47.504;7.382;2023-08-20T13:54:54;20.33;;;5.00;;
21816;SDS011;13247;47.504;7.382;2023-08-20T13:57:38;7.18;;;5.13;;
21816;SDS011;13247;47.504;7.382;2023-08-20T14:00:23;5.57;;;4.55;;
21816;SDS011;13247;47.504;7.382;2023-08-20T14:03:08;8.43;;;5.57;;
21816;SDS011;13247;47.504;7.382;2023-08-20T14:05:52;11.50;;;4.82;;
21816;SDS011;13247;47.504;7.382;2023-08-20T14:08:37;7.15;;;4.50;;
21816;SDS011;13247;47.504;7.382;2023-08-20T14:11:21;5.10;;;4.25;;
21816;SDS011;13247;47.504;7.382;2023-08-20T14:14:06;8.80;;;5.18;;
21816;SDS011;13247;47.504;7.382;2023-08-20T14:16:51;6.32;;;4.35;;
21816;SDS011;13247;47.504;7.382;2023-08-20T14:19:35;10.77;;;4.72;;
21816;SDS011;13247;47.504;7.382;2023-08-20T14:22:20;7.32;;;4.18;;
21816;SDS011;13247;47.504;7.382;2023-08-20T14:25:05;6.85;;;4.90;;
21816;SDS011;13247;47.504;7.382;2023-08-20T14:27:50;7.47;;;4.68;;
21816;SDS011;13247;47.504;7.382;2023-08-20T14:30:38;9.38;;;4.35;;
21816;SDS011;13247;47.504;7.382;2023-08-20T14:33:23;6.57;;;4.47;;
21816;SDS011;13247;47.504;7.382;2023-08-20T14:36:07;8.85;;;4.82;;
21816;SDS011;13247;47.504;7.382;2023-08-20T14:38:52;6.35;;;4.50;;
21816;SDS011;13247;47.504;7.382;2023-08-20T14:41:36;8.82;;;4.57;;
21816;SDS011;13247;47.504;7.382;2023-08-20T14:44:21;6.95;;;4.43;;
21816;SDS011;13247;47.504;7.382;2023-08-20T14:47:05;7.00;;;4.30;;
21816;SDS011;13247;47.504;7.382;2023-08-20T14:49:50;7.63;;;4.50;;
21816;SDS011;13247;47.504;7.382;2023-08-20T14:52:35;6.38;;;3.92;;
21816;SDS011;13247;47.504;7.382;2023-08-20T14:55:20;10.57;;;4.30;;
21816;SDS011;13247;47.504;7.382;2023-08-20T14:58:05;5.22;;;4.43;;
21816;SDS011;13247;47.504;7.382;2023-08-20T15:00:49;6.10;;;4.03;;
21816;SDS011;13247;47.504;7.382;2023-08-20T15:03:34;6.70;;;4.38;;
21816;SDS011;13247;47.504;7.382;2023-08-20T15:06:18;8.65;;;3.92;;
21816;SDS011;13247;47.504;7.382;2023-08-20T15:09:05;5.43;;;3.45;;
21816;SDS011;13247;47.504;7.382;2023-08-20T15:11:53;4.68;;;3.95;;
21816;SDS011;13247;47.504;7.382;2023-08-20T15:14:38;13.35;;;4.88;;
21816;SDS011;13247;47.504;7.382;2023-08-20T15:17:22;9.73;;;4.50;;
21816;SDS011;13247;47.504;7.382;2023-08-20T15:20:07;10.95;;;4.78;;
21816;SDS011;13247;47.504;7.382;2023-08-20T15:22:53;5.93;;;3.80;;
21816;SDS011;13247;47.504;7.382;2023-08-20T15:25:38;5.32;;;3.83;;
21816;SDS011;13247;47.504;7.382;2023-08-20T15:28:23;5.45;;;3.78;;
21816;SDS011;13247;47.504;7.382;2023-08-20T15:31:09;6.57;;;3.88;;
21816;SDS011;13247;47.504;7.382;2023-08-20T15:33:53;7.88;;;3.83;;
21816;SDS011;13247;47.504;7.382;2023-08-20T15:36:38;6.93;;;3.80;;
21816;SDS011;13247;47.504;7.382;2023-08-20T15:39:22;4.95;;;3.30;;
21816;SDS011;13247;47.504;7.382;2023-08-20T15:42:07;4.03;;;3.20;;
21816;SDS011;13247;47.504;7.382;2023-08-20T15:44:52;4.35;;;3.83;;
21816;SDS011;13247;47.504;7.382;2023-08-20T15:47:37;7.63;;;3.80;;
21816;SDS011;13247;47.504;7.382;2023-08-20T15:50:21;7.78;;;3.80;;
21816;SDS011;13247;47.504;7.382;2023-08-20T15:53:06;4.40;;;3.45;;
21816;SDS011;13247;47.504;7.382;2023-08-20T15:55:51;6.15;;;3.80;;
21816;SDS011;13247;47.504;7.382;2023-08-20T15:58:35;8.38;;;3.78;;
21816;SDS011;13247;47.504;7.382;2023-08-20T16:01:20;5.15;;;4.10;;
21816;SDS011;13247;47.504;7.382;2023-08-20T16:04:05;7.15;;;4.10;;
21816;SDS011;13247;47.504;7.382;2023-08-20T16:06:49;8.35;;;4.30;;
21816;SDS011;13247;47.504;7.382;2023-08-20T16:09:34;5.45;;;3.55;;
21816;SDS011;13247;47.504;7.382;2023-08-20T16:12:19;4.32;;;3.90;;
21816;SDS011;13247;47.504;7.382;2023-08-20T16:15:04;5.72;;;3.75;;
21816;SDS011;13247;47.504;7.382;2023-08-20T16:17:50;4.25;;;3.85;;
21816;SDS011;13247;47.504;7.382;2023-08-20T16:20:34;7.32;;;4.07;;
21816;SDS011;13247;47.504;7.382;2023-08-20T16:23:20;7.43;;;3.92;;
21816;SDS011;13247;47.504;7.382;2023-08-20T16:26:04;8.20;;;4.30;;
21816;SDS011;13247;47.504;7.382;2023-08-20T16:28:49;6.88;;;3.67;;
21816;SDS011;13247;47.504;7.382;2023-08-20T16:31:34;9.13;;;4.50;;
21816;SDS011;13247;47.504;7.382;2023-08-20T16:34:19;9.00;;;3.63;;
21816;SDS011;13247;47.504;7.382;2023-08-20T16:37:04;7.15;;;3.72;;
21816;SDS011;13247;47.504;7.382;2023-08-20T16:39:49;5.30;;;3.85;;